createdAt,value
2022-12-11T00:00:23.654Z,26.13
2022-12-11T00:02:22.016Z,26.13
2022-12-11T00:04:20.080Z,26.19
2022-12-11T00:06:18.036Z,26.25
2022-12-11T00:08:16.020Z,26.31
2022-12-11T00:10:13.953Z,26.38
2022-12-11T00:12:11.931Z,26.38
2022-12-11T00:14:09.839Z,26.38
2022-12-11T00:16:07.778Z,26.44
2022-12-11T00:18:06.016Z,26.50
2022-12-11T00:20:05.060Z,26.19
2022-12-11T00:22:02.968Z,26.25
2022-12-11T00:24:00.962Z,26.19
2022-12-11T00:25:58.918Z,25.94
2022-12-11T00:27:56.849Z,25.88
2022-12-11T00:29:54.806Z,25.81
2022-12-11T00:31:53.142Z,26.06
2022-12-11T00:33:51.281Z,26.00
2022-12-11T00:35:49.580Z,25.94
2022-12-11T00:37:47.544Z,25.88
2022-12-11T00:39:45.708Z,25.81
2022-12-11T00:41:43.663Z,25.81
2022-12-11T00:43:41.825Z,25.75
2022-12-11T00:45:40.245Z,25.69
2022-12-11T00:47:38.255Z,25.88
2022-12-11T00:49:36.283Z,25.81
2022-12-11T00:51:34.444Z,25.75
2022-12-11T00:53:32.380Z,25.69
2022-12-11T00:55:30.447Z,25.81
2022-12-11T00:57:28.324Z,25.81
2022-12-11T00:59:26.708Z,25.75
2022-12-11T01:01:25.209Z,25.69
2022-12-11T01:03:23.363Z,25.63
2022-12-11T01:05:21.302Z,25.75
2022-12-11T01:07:19.264Z,25.94
2022-12-11T01:09:34.764Z,26.19
2022-12-11T01:11:32.865Z,26.44
2022-12-11T01:13:30.882Z,26.56
2022-12-11T01:15:30.617Z,26.56
2022-12-11T01:17:28.576Z,26.38
2022-12-11T01:19:26.596Z,26.56
2022-12-11T01:21:24.566Z,26.50
2022-12-11T01:23:22.567Z,26.56
2022-12-11T01:25:20.639Z,26.63
2022-12-11T01:27:18.748Z,26.69
2022-12-11T01:29:16.692Z,26.50
2022-12-11T01:31:14.846Z,26.50
2022-12-11T01:33:15.346Z,26.56
2022-12-11T01:35:13.457Z,26.38
2022-12-11T01:37:11.584Z,26.31
2022-12-11T01:39:09.546Z,26.06
2022-12-11T01:41:07.488Z,26.00
2022-12-11T01:43:05.530Z,25.94
2022-12-11T01:45:03.676Z,26.13
2022-12-11T01:47:01.907Z,26.25
2022-12-11T01:48:59.884Z,26.19
2022-12-11T01:50:57.797Z,26.19
2022-12-11T01:52:55.703Z,26.13
2022-12-11T01:54:53.923Z,26.00
2022-12-11T01:56:51.878Z,25.94
2022-12-11T01:58:49.827Z,26.06
2022-12-11T02:00:47.980Z,26.50
2022-12-11T02:02:46.137Z,26.81
2022-12-11T02:04:44.125Z,26.69
2022-12-11T02:06:42.037Z,26.63
2022-12-11T02:08:40.021Z,26.69
2022-12-11T02:10:38.147Z,26.81
2022-12-11T02:12:36.316Z,26.88
2022-12-11T02:14:34.330Z,26.75
2022-12-11T02:16:32.297Z,26.75
2022-12-11T02:18:30.312Z,28.00
2022-12-11T02:20:28.392Z,27.38
2022-12-11T02:22:26.343Z,25.75
2022-12-11T02:24:24.452Z,24.06
2022-12-11T02:26:22.367Z,27.44
2022-12-11T02:28:20.315Z,27.31
2022-12-11T02:30:18.468Z,27.94
2022-12-11T02:32:16.396Z,28.38
2022-12-11T02:34:14.376Z,28.56
2022-12-11T02:36:12.352Z,28.63
2022-12-11T02:38:10.279Z,28.69
2022-12-11T02:40:08.196Z,28.88
2022-12-11T02:42:06.135Z,28.94
2022-12-11T02:44:04.058Z,28.88
2022-12-11T02:46:01.977Z,28.88
2022-12-11T02:47:59.981Z,28.75
2022-12-11T02:49:57.862Z,28.69
2022-12-11T02:51:55.956Z,28.44
2022-12-11T02:53:53.904Z,28.19
2022-12-11T02:55:51.866Z,28.13
2022-12-11T02:57:49.863Z,28.06
2022-12-11T02:59:48.035Z,27.81
2022-12-11T03:01:46.033Z,27.88
2022-12-11T03:03:44.035Z,27.63
2022-12-11T03:05:41.964Z,27.50
2022-12-11T03:07:39.918Z,27.25
2022-12-11T03:09:37.948Z,27.31
2022-12-11T03:11:35.879Z,27.38
2022-12-11T03:13:33.880Z,27.06
2022-12-11T03:15:31.825Z,26.88
2022-12-11T03:17:29.740Z,26.88
2022-12-11T03:19:27.795Z,26.88
2022-12-11T03:21:25.738Z,26.56
2022-12-11T03:23:23.656Z,26.38
2022-12-11T03:25:21.780Z,26.31
2022-12-11T03:27:19.818Z,26.25
2022-12-11T03:29:17.781Z,26.31
2022-12-11T03:31:15.763Z,26.44
2022-12-11T03:33:13.868Z,26.25
2022-12-11T03:35:13.092Z,26.25
2022-12-11T03:37:11.137Z,26.13
2022-12-11T03:39:09.324Z,26.06
2022-12-11T03:41:07.274Z,26.19
2022-12-11T03:43:05.630Z,26.25
2022-12-11T03:45:03.917Z,26.31
2022-12-11T03:47:01.963Z,26.31
2022-12-11T03:48:59.870Z,26.19
2022-12-11T03:50:57.739Z,26.13
2022-12-11T03:52:55.713Z,26.06
2022-12-11T03:54:53.596Z,26.25
2022-12-11T03:56:51.873Z,26.13
2022-12-11T03:58:49.857Z,26.06
2022-12-11T04:00:47.847Z,26.13
2022-12-11T04:03:09.650Z,26.06
2022-12-11T04:05:11.323Z,25.94
2022-12-11T04:07:09.376Z,26.56
2022-12-11T04:09:07.312Z,26.69
2022-12-11T04:11:23.078Z,26.94
2022-12-11T04:13:21.037Z,26.88
2022-12-11T04:15:17.948Z,26.94
2022-12-11T04:17:36.632Z,27.06
2022-12-11T04:19:52.324Z,26.94
2022-12-11T04:22:04.411Z,26.75
2022-12-11T04:24:17.397Z,26.75
2022-12-11T04:26:15.341Z,26.81
2022-12-11T04:28:13.513Z,26.88
2022-12-11T04:30:11.395Z,26.88
2022-12-11T04:32:09.487Z,26.94
2022-12-11T04:34:07.585Z,26.81
2022-12-11T04:36:05.623Z,26.88
2022-12-11T04:38:03.536Z,26.88
2022-12-11T04:40:01.521Z,26.56
2022-12-11T04:41:59.571Z,26.31
2022-12-11T04:43:57.774Z,26.31
2022-12-11T04:45:55.680Z,26.31
2022-12-11T04:47:53.569Z,26.19
2022-12-11T04:49:51.493Z,26.13
2022-12-11T04:51:49.756Z,26.19
2022-12-11T04:53:47.687Z,26.19
2022-12-11T04:55:45.615Z,26.13
2022-12-11T04:57:43.735Z,26.00
2022-12-11T04:59:42.032Z,26.19
2022-12-11T05:01:39.996Z,26.19
2022-12-11T05:03:38.222Z,26.31
2022-12-11T05:05:36.340Z,26.63
2022-12-11T05:07:34.265Z,26.88
2022-12-11T05:09:32.205Z,26.94
2022-12-11T05:11:30.378Z,27.00
2022-12-11T05:13:28.568Z,26.69
2022-12-11T05:15:26.681Z,26.75
2022-12-11T05:17:24.761Z,26.75
2022-12-11T05:19:22.694Z,26.75
2022-12-11T05:21:20.604Z,26.69
2022-12-11T05:23:18.542Z,26.75
2022-12-11T05:25:16.826Z,26.75
2022-12-11T05:27:14.930Z,26.81
2022-12-11T05:29:12.846Z,26.81
2022-12-11T05:31:10.804Z,26.81
2022-12-11T05:33:08.746Z,26.88
2022-12-11T05:35:07.040Z,26.63
2022-12-11T05:37:05.204Z,26.19
2022-12-11T05:39:03.337Z,26.31
2022-12-11T05:41:01.292Z,26.31
2022-12-11T05:42:59.232Z,26.25
2022-12-11T05:44:57.324Z,26.13
2022-12-11T05:46:55.461Z,26.19
2022-12-11T05:48:53.517Z,26.00
2022-12-11T05:50:51.611Z,25.94
2022-12-11T05:52:49.681Z,26.13
2022-12-11T05:54:47.595Z,26.63
2022-12-11T05:56:45.467Z,26.56
2022-12-11T05:58:43.541Z,26.75
2022-12-11T06:00:41.521Z,26.88
2022-12-11T06:02:40.550Z,26.88
2022-12-11T06:04:38.674Z,26.81
2022-12-11T06:06:36.657Z,26.75
2022-12-11T06:08:34.722Z,26.81
2022-12-11T06:10:32.825Z,26.75
2022-12-11T06:12:31.058Z,26.69
2022-12-11T06:14:29.194Z,26.81
2022-12-11T06:16:27.153Z,28.00
2022-12-11T06:18:25.375Z,27.06
2022-12-11T06:20:23.719Z,25.13
2022-12-11T06:22:22.035Z,27.69
2022-12-11T06:24:20.332Z,27.63
2022-12-11T06:26:18.266Z,28.19
2022-12-11T06:28:16.178Z,28.56
2022-12-11T06:30:14.258Z,28.63
2022-12-11T06:32:12.207Z,28.75
2022-12-11T06:34:10.157Z,28.75
2022-12-11T06:36:08.403Z,28.81
2022-12-11T06:38:06.366Z,29.00
2022-12-11T06:40:04.289Z,28.94
2022-12-11T06:42:02.155Z,28.75
2022-12-11T06:44:00.087Z,28.69
2022-12-11T06:46:03.618Z,28.63
2022-12-11T06:48:02.401Z,28.63
2022-12-11T06:50:01.033Z,28.38
2022-12-11T06:51:58.935Z,28.50
2022-12-11T06:53:57.101Z,28.13
2022-12-11T06:55:55.268Z,27.94
2022-12-11T06:57:53.314Z,27.94
2022-12-11T06:59:51.228Z,27.69
2022-12-11T07:01:49.215Z,31.31
2022-12-11T07:03:47.184Z,31.56
2022-12-11T07:05:45.100Z,31.88
2022-12-11T07:07:43.168Z,32.06
2022-12-11T07:09:41.132Z,32.19
2022-12-11T07:11:39.278Z,32.31
2022-12-11T07:13:37.243Z,32.38
2022-12-11T07:15:40.167Z,32.44
2022-12-11T07:17:38.685Z,32.44
2022-12-11T07:19:36.763Z,32.38
2022-12-11T07:21:34.633Z,32.31
2022-12-11T07:23:32.607Z,32.31
2022-12-11T07:25:30.511Z,32.19
2022-12-11T07:27:28.532Z,32.13
2022-12-11T07:29:26.553Z,32.06
2022-12-11T07:31:25.142Z,32.00
2022-12-11T07:33:23.458Z,31.88
2022-12-11T07:35:21.345Z,31.81
2022-12-11T07:37:19.337Z,31.69
2022-12-11T07:39:17.277Z,31.56
2022-12-11T07:41:15.167Z,31.50
2022-12-11T07:43:13.141Z,31.44
2022-12-11T07:45:11.261Z,31.38
2022-12-11T07:47:09.438Z,31.31
2022-12-11T07:49:07.394Z,31.25
2022-12-11T07:51:05.537Z,31.19
2022-12-11T07:53:03.703Z,31.19
2022-12-11T07:55:02.018Z,31.13
2022-12-11T07:56:59.946Z,31.13
2022-12-11T07:58:57.916Z,31.13
2022-12-11T08:00:55.925Z,31.13
2022-12-11T08:02:54.113Z,31.13
2022-12-11T08:04:52.057Z,31.13
2022-12-11T08:06:49.977Z,31.13
2022-12-11T08:08:48.137Z,31.13
2022-12-11T08:10:46.279Z,31.13
2022-12-11T08:12:44.249Z,31.19
2022-12-11T08:14:42.244Z,31.19
2022-12-11T08:16:43.040Z,31.25
2022-12-11T08:18:41.077Z,31.31
2022-12-11T08:20:39.055Z,31.31
2022-12-11T08:22:37.031Z,31.38
2022-12-11T08:24:34.960Z,31.38
2022-12-11T08:26:34.023Z,31.44
2022-12-11T08:28:32.038Z,31.44
2022-12-11T08:30:29.973Z,31.50
2022-12-11T08:32:27.923Z,31.50
2022-12-11T08:34:26.087Z,31.56
2022-12-11T08:36:24.057Z,31.63
2022-12-11T08:38:25.339Z,31.63
2022-12-11T08:40:23.793Z,31.63
2022-12-11T08:42:21.764Z,31.63
2022-12-11T08:44:19.846Z,31.69
2022-12-11T08:46:17.838Z,31.69
2022-12-11T08:48:16.166Z,31.69
2022-12-11T08:50:14.174Z,28.31
2022-12-11T08:52:13.211Z,27.88
2022-12-11T08:54:12.135Z,25.75
2022-12-11T08:56:10.190Z,23.63
2022-12-11T08:58:08.241Z,27.81
2022-12-11T09:00:06.228Z,27.69
2022-12-11T09:02:04.515Z,28.38
2022-12-11T09:04:02.454Z,28.88
2022-12-11T09:06:00.495Z,29.19
2022-12-11T09:07:58.409Z,29.38
2022-12-11T09:09:56.771Z,29.63
2022-12-11T09:11:54.711Z,30.06
2022-12-11T09:13:52.715Z,30.56
2022-12-11T09:15:51.941Z,30.88
2022-12-11T09:17:49.858Z,31.25
2022-12-11T09:19:47.814Z,31.56
2022-12-11T09:21:45.722Z,31.81
2022-12-11T09:23:43.616Z,32.13
2022-12-11T09:25:42.003Z,32.44
2022-12-11T09:27:39.967Z,32.63
2022-12-11T09:29:38.243Z,32.88
2022-12-11T09:31:36.306Z,33.00
2022-12-11T09:33:34.308Z,33.19
2022-12-11T09:35:32.249Z,33.31
2022-12-11T09:37:30.285Z,33.38
2022-12-11T09:39:28.198Z,33.44
2022-12-11T09:41:28.949Z,33.50
2022-12-11T09:43:26.910Z,33.63
2022-12-11T09:45:24.859Z,33.63
2022-12-11T09:47:22.807Z,33.63
2022-12-11T09:49:21.041Z,33.63
2022-12-11T09:51:18.997Z,33.56
2022-12-11T09:53:17.207Z,33.56
2022-12-11T09:55:17.198Z,33.50
2022-12-11T09:57:15.512Z,33.44
2022-12-11T09:59:15.149Z,33.38
2022-12-11T10:01:13.146Z,33.31
2022-12-11T10:03:11.294Z,33.25
2022-12-11T10:05:09.722Z,33.19
2022-12-11T10:07:07.898Z,33.06
2022-12-11T10:09:05.847Z,33.00
2022-12-11T10:11:03.899Z,32.94
2022-12-11T10:13:01.848Z,32.88
2022-12-11T10:14:59.862Z,32.75
2022-12-11T10:16:57.890Z,32.63
2022-12-11T10:18:55.864Z,32.56
2022-12-11T10:20:53.790Z,32.50
2022-12-11T10:22:51.773Z,32.44
2022-12-11T10:27:07.911Z,32.25
2022-12-11T10:29:05.864Z,32.13
2022-12-11T10:31:04.191Z,32.06
2022-12-11T10:33:02.381Z,32.06
2022-12-11T10:35:00.316Z,31.94
2022-12-11T10:37:00.513Z,31.94
2022-12-11T10:38:58.761Z,31.88
2022-12-11T10:40:56.676Z,31.81
2022-12-11T10:42:54.646Z,31.81
2022-12-11T10:44:52.652Z,31.81
2022-12-11T10:46:50.690Z,31.81
2022-12-11T10:48:48.647Z,31.75
2022-12-11T10:50:46.647Z,31.75
2022-12-11T10:52:44.756Z,31.69
2022-12-11T10:54:43.009Z,31.69
2022-12-11T10:56:41.001Z,31.69
2022-12-11T10:58:39.366Z,31.69
2022-12-11T11:00:37.611Z,31.69
2022-12-11T11:02:35.851Z,31.63
2022-12-11T11:04:33.893Z,31.69
2022-12-11T11:06:31.794Z,31.69
2022-12-11T11:08:29.785Z,31.69
2022-12-11T11:10:28.032Z,31.69
2022-12-11T11:12:26.412Z,31.69
2022-12-11T11:14:24.556Z,31.69
2022-12-11T11:16:26.536Z,31.69
2022-12-11T11:18:27.414Z,31.75
2022-12-11T11:20:43.700Z,31.75
2022-12-11T11:22:41.658Z,31.75
2022-12-11T11:24:39.769Z,31.75
2022-12-11T11:27:11.557Z,31.75
2022-12-11T11:28:56.703Z,31.75
2022-12-11T11:30:54.922Z,31.69
2022-12-11T11:32:52.944Z,31.75
2022-12-11T11:34:51.112Z,31.81
2022-12-11T11:36:49.130Z,31.81
2022-12-11T11:38:47.256Z,31.81
2022-12-11T11:40:45.230Z,31.88
2022-12-11T11:42:43.209Z,31.88
2022-12-11T11:44:41.178Z,31.88
2022-12-11T11:46:39.149Z,31.88
2022-12-11T11:48:37.110Z,31.88
2022-12-11T11:50:35.710Z,31.88
2022-12-11T11:52:33.633Z,31.94
2022-12-11T11:54:31.983Z,31.94
2022-12-11T11:56:31.596Z,31.94
2022-12-11T11:58:29.593Z,31.94
2022-12-11T12:00:33.136Z,31.94
2022-12-11T12:02:32.025Z,31.94
2022-12-11T12:04:29.987Z,31.94
2022-12-11T12:06:28.141Z,31.94
2022-12-11T12:08:27.218Z,31.94
2022-12-11T12:10:25.412Z,31.94
2022-12-11T12:12:27.633Z,31.94
2022-12-11T12:16:53.761Z,31.94
2022-12-11T12:18:51.912Z,31.94
2022-12-11T12:20:49.862Z,31.94
2022-12-11T12:22:47.779Z,31.94
2022-12-11T12:24:45.759Z,31.94
2022-12-11T12:26:43.697Z,31.94
2022-12-11T12:28:41.928Z,31.94
2022-12-11T12:30:39.896Z,31.94
2022-12-11T12:32:38.088Z,31.94
2022-12-11T12:34:36.002Z,31.88
2022-12-11T12:36:33.924Z,31.88
2022-12-11T12:38:31.992Z,31.94
2022-12-11T12:40:30.111Z,31.94
2022-12-11T12:42:28.020Z,31.88
2022-12-11T12:44:26.092Z,31.88
2022-12-11T12:46:24.024Z,31.88
2022-12-11T12:48:21.957Z,31.88
2022-12-11T12:50:20.911Z,31.88
2022-12-11T12:52:18.914Z,31.81
2022-12-11T12:54:17.933Z,31.88
2022-12-11T12:56:15.866Z,31.81
2022-12-11T12:58:14.849Z,31.81
2022-12-11T13:41:59.307Z,27.75
2022-12-11T13:43:57.249Z,26.25
2022-12-11T13:45:55.486Z,24.69
2022-12-11T13:47:53.478Z,27.88
2022-12-11T13:49:51.418Z,28.06
2022-12-11T13:51:49.429Z,28.81
2022-12-11T13:53:47.365Z,29.38
2022-12-11T13:55:45.308Z,29.69
2022-12-11T13:57:43.559Z,29.94
2022-12-11T13:59:41.483Z,30.13
2022-12-11T14:01:39.433Z,30.44
2022-12-11T14:03:37.449Z,30.81
2022-12-11T14:05:35.422Z,31.25
2022-12-11T14:07:34.477Z,31.50
2022-12-11T14:09:32.840Z,31.75
2022-12-11T14:11:31.008Z,32.06
2022-12-11T14:13:28.893Z,32.31
2022-12-11T14:15:26.887Z,32.50
2022-12-11T14:17:25.131Z,32.75
2022-12-11T14:19:23.145Z,32.88
2022-12-11T14:21:21.209Z,33.00
2022-12-11T14:23:19.134Z,33.13
2022-12-11T14:25:17.222Z,33.19
2022-12-11T14:27:15.164Z,33.25
2022-12-11T14:29:13.404Z,33.31
2022-12-11T14:31:12.422Z,33.38
2022-12-11T14:33:10.361Z,33.38
2022-12-11T14:35:09.340Z,33.38
2022-12-11T14:37:07.275Z,33.38
2022-12-11T14:39:05.772Z,33.31
2022-12-11T14:41:03.817Z,33.31
2022-12-11T14:43:01.807Z,33.25
2022-12-11T14:44:59.843Z,33.25
2022-12-11T14:46:57.791Z,33.19
2022-12-11T14:49:00.597Z,33.13
2022-12-11T14:50:59.090Z,33.06
2022-12-11T14:52:57.186Z,33.00
2022-12-11T14:54:55.290Z,32.88
2022-12-11T14:56:53.584Z,32.81
2022-12-11T14:58:51.535Z,32.75
2022-12-11T15:00:49.462Z,32.69
2022-12-11T15:02:47.413Z,32.56
2022-12-11T15:04:45.503Z,32.50
2022-12-11T15:06:43.520Z,32.44
2022-12-11T15:08:41.487Z,32.38
2022-12-11T15:10:41.091Z,32.31
2022-12-11T15:12:39.157Z,32.25
2022-12-11T15:14:37.088Z,32.19
2022-12-11T15:16:35.044Z,32.13
2022-12-11T15:18:33.501Z,32.06
2022-12-11T15:20:31.491Z,32.00
2022-12-11T15:22:29.412Z,31.94
2022-12-11T15:24:27.565Z,31.94
2022-12-11T15:26:25.530Z,31.88
2022-12-11T15:28:23.547Z,31.88
2022-12-11T15:30:26.630Z,31.88
2022-12-11T15:32:25.597Z,31.81
2022-12-11T15:34:23.689Z,31.81
2022-12-11T15:36:21.635Z,31.75
2022-12-11T15:38:19.905Z,31.75
2022-12-11T15:40:18.135Z,31.75
2022-12-11T15:42:16.120Z,31.75
2022-12-11T15:44:14.216Z,31.75
2022-12-11T15:46:12.426Z,31.75
2022-12-11T15:48:11.302Z,31.75
2022-12-11T15:50:09.515Z,31.75
2022-12-11T15:52:08.716Z,31.75
2022-12-11T15:54:06.651Z,31.75
2022-12-11T15:56:04.802Z,31.75
2022-12-11T15:58:02.899Z,31.81
2022-12-11T16:00:00.936Z,31.81
2022-12-11T16:01:58.936Z,31.81
2022-12-11T16:04:01.719Z,31.81
2022-12-11T16:06:02.727Z,31.88
2022-12-11T16:08:00.729Z,31.88
2022-12-11T16:09:58.800Z,31.88
2022-12-11T16:11:57.784Z,31.88
2022-12-11T16:13:56.802Z,31.88
2022-12-11T16:15:54.830Z,31.88
2022-12-11T16:17:52.821Z,31.94
2022-12-11T16:19:51.228Z,31.94
2022-12-11T16:21:49.123Z,31.94
2022-12-11T16:23:47.055Z,31.94
2022-12-11T16:25:45.002Z,31.94
2022-12-11T16:27:43.152Z,32.00
2022-12-11T16:29:41.085Z,32.00
2022-12-11T16:31:39.004Z,32.00
2022-12-11T16:33:37.040Z,32.00
2022-12-11T16:35:35.356Z,32.00
2022-12-11T16:37:33.256Z,32.00
2022-12-11T16:39:31.143Z,31.94
2022-12-11T16:41:29.413Z,31.94
2022-12-11T16:43:27.469Z,31.94
2022-12-11T16:45:25.725Z,31.94
2022-12-11T16:47:23.696Z,31.94
2022-12-11T16:49:21.658Z,31.94
2022-12-11T16:51:19.922Z,31.94
2022-12-11T16:53:17.965Z,31.88
2022-12-11T16:55:16.207Z,31.88
2022-12-11T16:57:14.263Z,31.88
2022-12-11T16:59:12.820Z,31.81
2022-12-11T17:01:12.148Z,31.81
2022-12-11T17:03:10.261Z,31.75
2022-12-11T17:05:08.417Z,31.75
2022-12-11T17:07:06.517Z,31.75
2022-12-11T17:09:04.425Z,31.69
2022-12-11T17:11:02.311Z,31.69
2022-12-11T17:13:00.255Z,31.63
2022-12-11T17:14:58.212Z,31.63
2022-12-11T17:16:56.799Z,31.63
2022-12-11T17:18:54.791Z,31.56
2022-12-11T17:20:52.787Z,31.56
2022-12-11T17:22:50.744Z,31.56
2022-12-11T17:24:49.711Z,31.44
2022-12-11T17:26:47.668Z,31.50
2022-12-11T17:28:45.595Z,31.44
2022-12-11T17:30:43.717Z,31.31
2022-12-11T17:32:42.194Z,31.31
2022-12-11T17:34:40.107Z,31.31
2022-12-11T17:36:38.342Z,31.31
2022-12-11T17:38:36.312Z,31.25
2022-12-11T17:40:34.390Z,31.19
2022-12-11T17:42:32.428Z,31.13
2022-12-11T17:44:31.134Z,31.13
2022-12-11T17:46:29.256Z,31.13
2022-12-11T17:48:27.227Z,31.13
2022-12-11T17:50:25.248Z,31.13
2022-12-11T17:52:23.141Z,31.13
2022-12-11T17:54:21.142Z,31.13
2022-12-11T17:56:19.068Z,31.13
2022-12-11T17:58:16.994Z,31.13
2022-12-11T18:00:14.960Z,31.06
2022-12-11T18:02:12.921Z,31.06
2022-12-11T18:04:10.999Z,31.06
2022-12-11T18:06:09.027Z,31.06
2022-12-11T18:08:07.240Z,31.25
2022-12-11T18:10:05.241Z,31.38
2022-12-11T18:12:03.215Z,31.44
2022-12-11T18:14:01.119Z,31.19
2022-12-11T18:15:59.078Z,30.94
2022-12-11T18:17:57.143Z,30.94
2022-12-11T18:19:55.385Z,30.94
2022-12-11T18:21:53.325Z,30.94
2022-12-11T18:23:51.419Z,30.88
2022-12-11T18:25:49.396Z,30.88
2022-12-11T18:27:47.471Z,30.88
2022-12-11T18:29:45.383Z,30.88
2022-12-11T18:31:43.491Z,30.81
2022-12-11T18:33:41.562Z,30.94
2022-12-11T18:35:42.742Z,30.94
2022-12-11T18:37:41.184Z,30.94
2022-12-11T18:39:39.294Z,30.88
2022-12-11T18:41:37.422Z,30.94
2022-12-11T18:43:35.519Z,30.88
2022-12-11T18:45:33.547Z,30.88
2022-12-11T18:47:31.914Z,30.88
2022-12-11T18:49:29.928Z,30.88
2022-12-11T18:51:27.910Z,30.44
2022-12-11T18:53:26.046Z,28.88
2022-12-11T18:55:24.105Z,27.44
2022-12-11T18:57:22.128Z,26.19
2022-12-11T18:59:20.098Z,24.38
2022-12-11T19:01:18.030Z,28.44
2022-12-11T19:03:16.293Z,28.44
2022-12-11T19:05:14.381Z,29.19
2022-12-11T19:07:12.642Z,29.56
2022-12-11T19:09:10.741Z,29.88
2022-12-11T19:11:09.732Z,30.13
2022-12-11T19:13:07.878Z,30.25
2022-12-11T19:15:06.113Z,30.63
2022-12-11T19:17:04.281Z,31.25
2022-12-11T19:19:02.494Z,31.63
2022-12-11T19:21:08.388Z,31.88
2022-12-11T19:23:06.782Z,32.13
2022-12-11T19:25:04.739Z,32.38
2022-12-11T19:27:02.747Z,32.56
2022-12-11T19:29:00.792Z,32.81
2022-12-11T19:30:59.265Z,32.94
2022-12-11T19:32:58.506Z,33.06
2022-12-11T19:34:56.519Z,33.13
2022-12-11T19:36:54.792Z,33.13
2022-12-11T19:38:54.391Z,33.13
2022-12-11T19:40:56.013Z,33.06
2022-12-11T19:42:54.183Z,33.00
2022-12-11T19:44:52.094Z,32.88
2022-12-11T19:46:50.460Z,32.75
2022-12-11T19:48:48.412Z,32.69
2022-12-11T19:50:46.496Z,32.56
2022-12-11T19:52:46.293Z,32.31
2022-12-11T19:54:44.605Z,32.31
2022-12-11T19:56:42.588Z,32.06
2022-12-11T19:58:40.487Z,32.00
2022-12-11T20:00:38.563Z,31.75
2022-12-11T20:02:36.481Z,31.63
2022-12-11T20:04:34.415Z,31.56
2022-12-11T20:06:32.349Z,31.50
2022-12-11T20:08:46.289Z,31.44
2022-12-11T20:10:44.426Z,30.56
2022-12-11T20:12:46.216Z,30.31
2022-12-11T20:14:44.314Z,30.25
2022-12-11T20:19:00.513Z,30.00
2022-12-11T20:20:58.419Z,29.94
2022-12-11T20:22:56.324Z,29.81
2022-12-11T20:24:54.273Z,29.69
2022-12-11T20:26:52.229Z,29.50
2022-12-11T20:28:51.126Z,30.44
2022-12-11T20:30:50.038Z,30.94
2022-12-11T20:32:48.046Z,31.13
2022-12-11T20:34:46.011Z,31.25
2022-12-11T20:36:44.170Z,31.25
2022-12-11T20:38:42.243Z,31.31
2022-12-11T20:40:40.199Z,31.38
2022-12-11T20:42:38.195Z,31.44
2022-12-11T20:44:36.166Z,31.50
2022-12-11T20:46:34.083Z,31.50
2022-12-11T20:48:32.042Z,31.56
2022-12-11T20:50:30.026Z,31.63
2022-12-11T20:52:28.462Z,31.50
2022-12-11T20:54:26.446Z,31.50
2022-12-11T20:56:24.395Z,31.56
2022-12-11T20:58:22.391Z,31.56
2022-12-11T21:00:20.297Z,31.50
2022-12-11T21:02:18.315Z,31.50
2022-12-11T21:04:16.688Z,31.50
2022-12-11T21:06:14.790Z,31.50
2022-12-11T21:08:12.775Z,31.38
2022-12-11T21:10:11.036Z,31.38
2022-12-11T21:12:08.939Z,31.38
2022-12-11T21:14:06.913Z,31.38
2022-12-11T21:16:05.361Z,31.38
2022-12-11T21:18:03.665Z,31.31
2022-12-11T21:20:01.680Z,31.25
2022-12-11T21:21:59.817Z,31.25
2022-12-11T21:23:57.777Z,31.19
2022-12-11T21:25:55.927Z,31.19
2022-12-11T21:27:53.913Z,31.19
2022-12-11T21:29:52.013Z,31.13
2022-12-11T21:31:51.172Z,31.06
2022-12-11T21:33:49.449Z,31.06
2022-12-11T21:35:47.454Z,31.06
2022-12-11T21:37:45.451Z,31.06
2022-12-11T21:39:43.370Z,31.00
2022-12-11T21:41:41.300Z,31.00
2022-12-11T21:44:00.190Z,31.00
2022-12-11T21:46:01.833Z,30.94
2022-12-11T21:48:02.644Z,30.94
2022-12-11T21:50:00.659Z,30.94
2022-12-11T21:51:59.630Z,30.94
2022-12-11T21:53:57.618Z,31.00
2022-12-11T21:55:55.523Z,31.06
2022-12-11T21:57:53.428Z,31.06
2022-12-11T21:59:51.373Z,31.00
2022-12-11T22:01:49.651Z,30.94
2022-12-11T22:03:47.590Z,30.94
2022-12-11T22:05:45.527Z,30.94
2022-12-11T22:07:43.458Z,30.88
2022-12-11T22:09:43.363Z,30.88
2022-12-11T22:11:41.369Z,30.88
2022-12-11T22:13:39.466Z,30.81
2022-12-11T22:15:38.628Z,30.94
2022-12-11T22:17:37.123Z,31.00
2022-12-11T22:19:35.116Z,31.00
2022-12-11T22:21:33.048Z,31.06
2022-12-11T22:23:31.069Z,31.06
2022-12-11T22:25:28.996Z,31.06
2022-12-11T22:27:32.945Z,31.00
2022-12-11T22:29:30.811Z,31.00
2022-12-11T22:31:28.743Z,31.00
2022-12-11T22:33:26.637Z,31.06
2022-12-11T22:35:27.389Z,31.00
2022-12-11T22:37:25.617Z,31.00
2022-12-11T22:39:24.429Z,31.44
2022-12-11T22:41:23.447Z,31.50
2022-12-11T22:43:21.619Z,31.56
2022-12-11T22:45:19.589Z,31.38
2022-12-11T22:47:17.771Z,31.19
2022-12-11T22:49:15.946Z,31.19
2022-12-11T22:51:13.961Z,31.19
2022-12-11T22:53:11.973Z,31.19
2022-12-11T22:55:10.037Z,31.13
2022-12-11T22:57:08.235Z,31.19
2022-12-11T22:59:07.399Z,31.19
2022-12-11T23:01:06.195Z,29.94
2022-12-11T23:03:04.167Z,29.75
2022-12-11T23:05:02.181Z,29.50
2022-12-11T23:07:00.195Z,29.19
2022-12-11T23:08:58.142Z,28.94
2022-12-11T23:10:56.126Z,28.75
2022-12-11T23:12:54.069Z,28.56
2022-12-11T23:14:52.047Z,28.19
2022-12-11T23:16:49.998Z,28.25
2022-12-11T23:18:47.966Z,27.88
2022-12-11T23:20:45.853Z,27.88
2022-12-11T23:22:43.796Z,27.19
2022-12-11T23:24:41.662Z,27.06
2022-12-11T23:26:39.611Z,27.00
2022-12-11T23:28:37.510Z,26.94
2022-12-11T23:30:35.648Z,26.81
2022-12-11T23:32:37.728Z,26.75
2022-12-11T23:34:35.628Z,26.63
2022-12-11T23:36:33.547Z,26.75
2022-12-11T23:38:31.471Z,26.69
2022-12-11T23:40:29.388Z,26.69
2022-12-11T23:42:27.315Z,26.63
2022-12-11T23:44:25.296Z,26.56
2022-12-11T23:46:23.356Z,26.88
2022-12-11T23:48:25.373Z,27.06
2022-12-11T23:50:23.810Z,27.19
2022-12-11T23:52:22.578Z,27.25
2022-12-11T23:54:20.516Z,27.31
2022-12-11T23:56:18.450Z,27.38
2022-12-11T23:58:16.372Z,27.25
